Time;durP1;ratioP1;P1;durP2;ratioP2;P2;SDS_P1;SDS_P2;PMS_P1;PMS_P2;Temp;Humidity;BMP_temperature;BMP_pressure;BME280_temperature;BME280_humidity;BME280_pressure;Samples;Min_cycle;Max_cycle;Signal;HPM_P1;HPM_P2
2021/10/25 00:00:07;;;;;;;;;6.75;4.00;;;;;22.80;38.87;101727.38;5054871;28;47681;-66
2021/10/25 00:02:33;;;;;;;;;6.50;5.75;;;;;22.61;38.96;101694.81;5054707;28;45431;-66
2021/10/25 00:04:58;;;;;;;;;3.75;3.75;;;;;22.78;39.21;101716.13;5054869;28;45955;-66
2021/10/25 00:07:24;;;;;;;;;6.00;5.25;;;;;22.81;38.99;101720.25;5054278;28;46181;-66
2021/10/25 00:09:49;;;;;;;;;7.25;5.75;;;;;22.81;38.82;101713.13;5055105;28;45459;-66
2021/10/25 00:12:14;;;;;;;;;4.00;4.00;;;;;22.73;38.96;101697.22;5054661;28;45625;-66
2021/10/25 00:14:40;;;;;;;;;5.00;5.00;;;;;22.78;39.14;101707.31;5054736;28;49512;-66
2021/10/25 00:17:05;;;;;;;;;7.00;6.00;;;;;22.74;39.33;101696.22;5054382;28;46963;-66
2021/10/25 00:19:31;;;;;;;;;5.25;5.25;;;;;22.82;38.90;101712.13;5054652;28;45480;-66
2021/10/25 00:21:57;;;;;;;;;5.00;5.00;;;;;22.82;39.00;101713.97;5050677;28;45361;-66
2021/10/25 00:24:22;;;;;;;;;8.00;5.00;;;;;22.82;39.17;101712.13;5054595;28;45330;-65
2021/10/25 00:26:47;;;;;;;;;5.50;5.50;;;;;22.82;38.90;101706.00;5054483;28;45599;-64
2021/10/25 00:29:13;;;;;;;;;5.00;5.00;;;;;22.82;39.47;101706.00;5054146;28;45307;-66
2021/10/25 00:31:38;;;;;;;;;4.50;4.50;;;;;22.81;39.45;101707.84;5054668;28;45528;-65
2021/10/25 00:34:04;;;;;;;;;4.00;4.00;;;;;22.81;38.98;101710.50;5054870;28;45318;-66
2021/10/25 00:36:31;;;;;;;;;5.00;5.00;;;;;22.81;39.55;101710.50;5054278;28;46032;-65
2021/10/25 00:38:56;;;;;;;;;7.00;6.00;;;;;22.81;39.33;101713.13;5054075;28;45445;-66
2021/10/25 00:41:22;;;;;;;;;5.50;5.50;;;;;22.81;39.30;101709.66;5054244;28;45522;-64
2021/10/25 00:43:47;;;;;;;;;6.50;5.00;;;;;22.81;38.98;101705.19;5054415;28;45356;-65
2021/10/25 00:46:13;;;;;;;;;5.75;4.00;;;;;22.81;39.01;101696.38;5054292;28;46029;-67
2021/10/25 00:48:38;;;;;;;;;4.25;4.25;;;;;22.80;39.48;101700.03;5057804;28;45450;-65
2021/10/25 00:51:06;;;;;;;;;4.50;4.50;;;;;22.81;39.28;101694.56;5057461;28;45635;-66
2021/10/25 00:53:31;;;;;;;;;5.00;4.75;;;;;22.80;39.28;101698.19;5057597;28;45496;-66
2021/10/25 00:55:58;;;;;;;;;4.25;4.25;;;;;22.70;39.06;101678.97;5057439;28;46164;-66
2021/10/25 00:58:23;;;;;;;;;5.75;4.00;;;;;22.81;39.45;101691.91;5057594;28;45417;-64
2021/10/25 01:00:49;;;;;;;;;4.00;4.00;;;;;22.81;39.38;101683.13;5058063;28;45643;-66
2021/10/25 01:03:14;;;;;;;;;5.00;5.00;;;;;22.71;39.25;101672.66;5057418;28;45312;-66
2021/10/25 01:05:40;;;;;;;;;5.75;5.75;;;;;22.81;39.10;101691.06;5056883;28;46272;-66
2021/10/25 01:08:06;;;;;;;;;4.00;4.00;;;;;22.79;39.38;101688.59;5057256;28;45423;-66
2021/10/25 01:10:33;;;;;;;;;5.50;4.25;;;;;22.80;38.95;101689.41;5057658;28;45443;-66
2021/10/25 01:12:58;;;;;;;;;5.50;5.50;;;;;22.73;39.49;101675.97;5057875;28;45323;-64
2021/10/25 01:15:25;;;;;;;;;5.75;5.75;;;;;22.79;38.78;101691.25;5056512;28;46032;-66
2021/10/25 01:17:58;;;;;;;;;5.00;5.00;;;;;22.78;39.13;101681.63;5056062;28;45562;-66
2021/10/25 01:20:26;;;;;;;;;5.00;5.00;;;;;22.79;39.48;101685.13;5056629;28;45326;-66
2021/10/25 01:22:52;;;;;;;;;4.00;4.00;;;;;22.72;39.01;101671.66;5057176;28;45462;-66
2021/10/25 01:25:17;;;;;;;;;4.00;4.00;;;;;22.77;39.24;101672.00;5056904;28;45402;-66
2021/10/25 01:27:43;;;;;;;;;4.00;4.00;;;;;22.77;38.86;101674.66;5057415;28;45420;-66
2021/10/25 01:30:08;;;;;;;;;4.00;4.00;;;;;22.80;39.32;101676.97;5057111;28;45405;-66
2021/10/25 01:32:34;;;;;;;;;4.00;3.25;;;;;22.73;39.49;101670.69;5057045;28;45554;-66
2021/10/25 01:34:59;;;;;;;;;3.50;3.50;;;;;22.78;38.91;101686.09;5056517;28;46513;-66
2021/10/25 01:37:25;;;;;;;;;7.00;5.50;;;;;22.80;39.40;101684.09;5057131;28;45319;-66
2021/10/25 01:39:50;;;;;;;;;5.50;5.50;;;;;22.70;39.05;101674.50;5057514;28;45578;-66
2021/10/25 01:42:16;;;;;;;;;5.50;4.50;;;;;22.80;39.51;101681.44;5054336;28;45505;-66
2021/10/25 01:44:42;;;;;;;;;6.00;6.00;;;;;22.81;38.98;101678.66;5056441;28;45991;-66
2021/10/25 01:47:07;;;;;;;;;5.00;4.00;;;;;22.81;39.14;101681.31;5056276;28;45427;-66
2021/10/25 01:49:32;;;;;;;;;4.50;3.50;;;;;22.81;39.43;101677.81;5056796;28;45491;-66
2021/10/25 01:51:58;;;;;;;;;5.75;4.25;;;;;22.80;39.08;101669.03;5057481;28;45324;-66
2021/10/25 01:54:24;;;;;;;;;6.25;4.00;;;;;22.79;39.37;101664.72;5055083;28;47067;-66
2021/10/25 01:56:50;;;;;;;;;4.75;3.75;;;;;22.81;39.07;101669.84;5056363;28;45426;-66
2021/10/25 01:59:15;;;;;;;;;4.00;4.00;;;;;22.80;39.20;101666.38;5055397;28;45581;-66
2021/10/25 02:01:40;;;;;;;;;4.00;4.00;;;;;22.80;39.47;101669.03;5056248;28;45363;-66
2021/10/25 02:04:06;;;;;;;;;5.50;5.50;;;;;22.81;39.43;101664.53;5056787;28;45950;-66
2021/10/25 02:06:33;;;;;;;;;5.00;5.00;;;;;22.77;39.41;101658.72;5056788;28;45339;-66
2021/10/25 02:08:58;;;;;;;;;6.00;5.00;;;;;22.80;39.05;101655.75;5080218;27;45363;-66
2021/10/25 02:11:24;;;;;;;;;6.75;5.00;;;;;22.77;39.01;101645.47;5056214;28;45629;-66
2021/10/25 02:13:49;;;;;;;;;4.00;4.00;;;;;22.80;39.13;101653.09;5056407;28;45964;-66
2021/10/25 02:16:16;;;;;;;;;3.50;3.50;;;;;22.79;39.11;101651.47;5056022;28;45614;-66
2021/10/25 02:18:42;;;;;;;;;4.00;3.25;;;;;22.79;39.08;101647.97;5055114;28;45478;-65
2021/10/25 02:21:07;;;;;;;;;4.75;4.00;;;;;22.77;39.70;101648.13;5056254;28;45486;-66
2021/10/25 02:23:33;;;;;;;;;6.00;4.75;;;;;22.71;39.45;101639.03;5056216;28;46292;-66
2021/10/25 02:25:59;;;;;;;;;4.00;4.00;;;;;22.79;39.56;101651.47;5056152;28;45402;-66
2021/10/25 02:28:24;;;;;;;;;3.50;3.50;;;;;22.74;39.12;101643.16;5056308;28;45440;-66
2021/10/25 02:30:52;;;;;;;;;4.50;4.50;;;;;22.67;38.90;101634.16;5055794;28;45616;-66
2021/10/25 02:33:18;;;;;;;;;5.00;3.75;;;;;22.79;38.97;101655.94;5055936;28;46310;-66
2021/10/25 02:35:43;;;;;;;;;4.00;3.25;;;;;22.68;39.67;101633.19;5055731;28;45418;-65
2021/10/25 02:38:09;;;;;;;;;4.00;4.00;;;;;22.71;39.29;101640.84;5055966;28;45553;-66
2021/10/25 02:40:35;;;;;;;;;3.50;3.50;;;;;22.78;39.61;101644.47;5056150;28;45314;-66
2021/10/25 02:43:00;;;;;;;;;3.75;3.75;;;;;22.72;39.38;101639.81;5056348;28;46204;-66
2021/10/25 02:45:27;;;;;;;;;4.50;4.00;;;;;22.78;39.27;101646.31;5055533;28;45491;-66
2021/10/25 02:47:53;;;;;;;;;3.00;3.00;;;;;22.77;39.00;101642.81;5055869;28;45469;-66
2021/10/25 02:50:19;;;;;;;;;4.00;4.00;;;;;22.48;39.10;101593.72;5055725;28;45410;-66
2021/10/25 02:52:44;;;;;;;;;5.25;3.50;;;;;22.78;39.21;101647.13;5055730;28;45978;-66
2021/10/25 02:55:10;;;;;;;;;4.00;4.00;;;;;22.78;39.02;101643.66;5055666;28;45429;-66
2021/10/25 02:57:36;;;;;;;;;4.00;3.75;;;;;22.78;38.97;101647.13;5056387;28;45393;-66
2021/10/25 03:00:05;;;;;;;;;4.00;4.00;;;;;22.78;39.53;101635.69;5054001;28;45534;-66
2021/10/25 03:02:32;;;;;;;;;6.25;5.00;;;;;22.73;39.32;101633.53;5055298;28;46417;-66
2021/10/25 03:04:57;;;;;;;;;3.25;3.25;;;;;22.77;39.58;101634.84;5055494;28;47626;-66
2021/10/25 03:07:22;;;;;;;;;3.25;1.75;;;;;22.77;39.50;101634.06;5054398;28;45301;-66
2021/10/25 03:09:47;;;;;;;;;3.50;3.50;;;;;22.79;39.29;101632.88;5056104;28;45367;-66
2021/10/25 03:12:13;;;;;;;;;2.75;2.75;;;;;22.79;39.14;101630.22;5055368;28;46214;-66
2021/10/25 03:14:38;;;;;;;;;3.75;3.75;;;;;22.79;39.31;101630.22;5055002;28;45467;-66
2021/10/25 03:17:03;;;;;;;;;4.00;4.00;;;;;22.80;39.60;101631.88;5055579;28;45700;-66
2021/10/25 03:19:29;;;;;;;;;2.50;2.50;;;;;22.76;39.21;101622.59;5054300;28;45493;-66
2021/10/25 03:21:54;;;;;;;;;4.00;4.00;;;;;22.80;39.14;101631.03;5055876;28;45492;-66
2021/10/25 03:24:20;;;;;;;;;6.25;5.00;;;;;22.74;39.46;101624.59;5055180;28;46056;-66
2021/10/25 03:26:46;;;;;;;;;4.00;4.00;;;;;22.76;38.98;101624.41;5054172;28;45399;-66
2021/10/25 03:29:11;;;;;;;;;3.25;3.25;;;;;22.72;39.23;101619.44;5054742;28;45496;-66
2021/10/25 03:31:37;;;;;;;;;4.50;3.75;;;;;22.79;39.47;101632.88;5055295;28;45995;-66
2021/10/25 03:34:02;;;;;;;;;3.00;3.00;;;;;22.80;39.54;101633.69;5055529;28;45485;-66
2021/10/25 03:36:30;;;;;;;;;4.00;4.00;;;;;22.79;39.57;101622.28;5055645;28;45521;-66
2021/10/25 03:38:56;;;;;;;;;4.00;3.00;;;;;22.79;39.44;101630.22;5054817;28;45452;-65
2021/10/25 03:41:41;;;;;;;;;2.00;2.00;;;;;22.79;39.37;101638.19;5054782;28;46366;-66
2021/10/25 03:45:11;;;;;;;;;5.75;3.50;;;;;22.79;39.13;101632.88;5054454;28;45437;-66
2021/10/25 03:47:04;;;;;;;;;4.00;4.00;;;;;22.73;39.60;101629.06;5045507;28;45213;-66
2021/10/25 03:52:09;;;;;;;;;4.00;4.00;;;;;22.78;39.49;101633.03;5051423;28;46170;-66
2021/10/25 03:54:42;;;;;;;;;4.75;4.75;;;;;22.74;39.26;101632.56;5053916;28;45472;-66
2021/10/25 03:57:26;;;;;;;;;4.00;4.00;;;;;22.76;39.19;101627.91;5054679;28;45510;-66
2021/10/25 04:00:15;;;;;;;;;3.75;3.75;;;;;22.69;39.10;101616.28;5054414;28;45499;-66
2021/10/25 04:29:36;;;;;;;;;5.00;3.75;;;;;22.76;39.64;101641.16;5015324;28;45449;-66
2021/10/25 04:32:06;;;;;;;;;4.00;4.00;;;;;22.76;39.26;101633.22;5015726;28;45571;-66
2021/10/25 04:34:35;;;;;;;;;4.00;3.75;;;;;22.66;39.37;101622.75;4999998;28;46126;-66
2021/10/25 04:37:01;;;;;;;;;4.75;4.75;;;;;22.77;39.33;101634.06;5016072;28;45375;-66
2021/10/25 04:39:26;;;;;;;;;3.00;3.00;;;;;22.76;39.60;101633.22;5015599;28;45476;-66
2021/10/25 04:41:51;;;;;;;;;3.00;3.00;;;;;22.78;39.14;101633.03;5015040;28;45513;-66
2021/10/25 04:44:17;;;;;;;;;3.00;3.00;;;;;22.77;39.24;101636.69;5015290;28;46164;-66
2021/10/25 04:46:42;;;;;;;;;7.50;6.00;;;;;22.77;39.34;101636.69;5015221;28;45471;-66
2021/10/25 04:49:07;;;;;;;;;3.00;3.00;;;;;22.76;39.21;101633.22;5015623;28;45400;-66
2021/10/25 04:51:34;;;;;;;;;5.00;4.50;;;;;22.73;39.06;101621.09;5015869;28;45471;-66
2021/10/25 04:54:00;;;;;;;;;2.00;2.00;;;;;22.73;39.71;101629.06;5015080;28;46317;-66
2021/10/25 04:56:26;;;;;;;;;3.00;3.00;;;;;22.69;39.28;101618.94;5014795;28;45350;-66
2021/10/25 04:58:52;;;;;;;;;3.00;3.00;;;;;22.72;39.78;101627.41;5015217;28;45539;-66
2021/10/25 05:01:17;;;;;;;;;3.50;3.50;;;;;22.78;39.26;101631.22;5015102;28;47622;-66
2021/10/25 05:03:42;;;;;;;;;4.00;4.00;;;;;22.79;39.55;101632.88;5015604;28;45411;-66
2021/10/25 05:06:15;;;;;;;;;4.00;3.50;;;;;22.50;39.57;101586.44;5026284;28;45260;-66
2021/10/25 05:08:40;;;;;;;;;6.00;5.00;;;;;22.79;39.48;101630.22;5057291;28;45367;-66
2021/10/25 05:11:05;;;;;;;;;3.25;3.25;;;;;22.77;39.64;101632.19;5056982;28;45367;-66
2021/10/25 05:13:31;;;;;;;;;4.75;3.00;;;;;22.74;39.73;101628.06;5057323;28;45269;-66
2021/10/25 05:15:57;;;;;;;;;4.00;3.00;;;;;22.79;39.41;101632.88;5053536;28;45440;-66
2021/10/25 05:18:22;;;;;;;;;2.00;2.00;;;;;22.79;39.09;101614.31;5057147;28;45451;-66
2021/10/25 05:20:48;;;;;;;;;5.00;4.50;;;;;22.78;39.37;101631.22;5056775;28;45473;-66
2021/10/25 05:23:13;;;;;;;;;5.00;3.25;;;;;22.75;39.32;101612.97;5056794;28;45449;-66
2021/10/25 05:25:40;;;;;;;;;3.00;3.00;;;;;22.79;39.34;101626.75;5056929;28;45386;-66
2021/10/25 05:28:06;;;;;;;;;7.00;5.00;;;;;22.78;39.71;101625.06;5057296;28;45481;-68
2021/10/25 05:30:31;;;;;;;;;4.75;4.25;;;;;22.78;39.87;101617.13;5057431;28;45578;-67
2021/10/25 05:32:56;;;;;;;;;2.75;2.75;;;;;22.78;39.87;101615.31;5055275;28;46960;-67
2021/10/25 05:35:24;;;;;;;;;3.00;3.00;;;;;22.78;39.82;101620.59;5056721;28;51301;-67
2021/10/25 05:37:49;;;;;;;;;2.50;2.00;;;;;22.63;39.31;101589.41;5057159;28;45569;-67
2021/10/25 05:40:15;;;;;;;;;3.00;3.00;;;;;22.77;39.78;101613.63;5056781;28;45402;-68
2021/10/25 05:42:40;;;;;;;;;2.50;2.50;;;;;22.78;39.41;101623.25;5057255;28;46880;-67
2021/10/25 05:45:06;;;;;;;;;3.00;3.00;;;;;22.77;39.42;101616.28;5056587;28;47007;-67
2021/10/25 05:47:32;;;;;;;;;3.00;3.00;;;;;22.77;39.91;101618.13;5056706;28;45546;-67
2021/10/25 05:49:58;;;;;;;;;5.00;4.00;;;;;22.78;39.67;101620.59;5056910;28;45458;-67
2021/10/25 05:52:24;;;;;;;;;5.50;4.75;;;;;22.78;39.70;101617.94;5056555;28;45672;-66
2021/10/25 05:54:49;;;;;;;;;3.00;3.00;;;;;22.78;39.84;101625.91;5052846;28;45427;-67
2021/10/25 05:57:16;;;;;;;;;5.00;3.50;;;;;22.73;39.82;101610.50;5046403;28;45452;-66
2021/10/25 05:59:42;;;;;;;;;3.50;3.00;;;;;22.79;40.26;101618.78;5050327;28;45405;-67
2021/10/25 06:04:34;;;;;;;;;3.50;3.00;;;;;22.80;40.38;101612.47;5049959;28;45388;-67
2021/10/25 06:06:59;;;;;;;;;3.75;3.75;;;;;22.80;39.84;101623.91;5052023;28;45228;-66
2021/10/25 06:09:27;;;;;;;;;5.75;5.75;;;;;22.78;40.44;101614.47;5055129;28;45282;-67
2021/10/25 06:11:52;;;;;;;;;6.50;4.00;;;;;22.80;40.17;101613.31;5046945;28;47219;-67
2021/10/25 06:14:26;;;;;;;;;3.50;3.00;;;;;22.78;40.73;101620.59;5051602;28;45292;-65
2021/10/25 06:16:57;;;;;;;;;3.25;3.25;;;;;22.81;40.15;101619.44;5049516;28;45430;-66
2021/10/25 06:19:23;;;;;;;;;4.75;3.00;;;;;22.82;40.59;101621.13;5046410;28;45594;-65
2021/10/25 06:21:48;;;;;;;;;4.00;4.00;;;;;22.77;40.69;101613.63;5044629;28;47281;-65
2021/10/25 06:24:14;;;;;;;;;3.50;3.00;;;;;22.74;40.62;101606.03;5055290;28;45629;-65
2021/10/25 06:26:39;;;;;;;;;4.25;3.00;;;;;22.78;40.62;101612.66;5055916;28;45553;-67
2021/10/25 06:29:04;;;;;;;;;2.50;2.50;;;;;22.84;40.80;101617.31;5056118;28;45361;-66
2021/10/25 06:31:31;;;;;;;;;3.00;3.00;;;;;22.85;40.67;101620.75;5056206;28;46158;-66
2021/10/25 06:34:00;;;;;;;;;5.75;4.00;;;;;22.85;40.95;101624.25;5056614;28;45410;-66
2021/10/25 06:36:25;;;;;;;;;3.00;3.00;;;;;22.87;40.33;101631.22;5055469;28;45540;-66
2021/10/25 06:41:18;;;;;;;;;3.25;3.25;;;;;22.85;40.58;101626.06;5055816;28;46105;-66
2021/10/25 06:43:44;;;;;;;;;3.25;3.25;;;;;22.81;40.43;101622.94;5055856;28;45581;-66
2021/10/25 06:46:10;;;;;;;;;2.75;2.75;;;;;22.78;41.01;101614.47;5055372;28;45477;-66
2021/10/25 06:48:36;;;;;;;;;5.00;3.75;;;;;22.84;40.74;101627.91;5056202;28;45406;-66
2021/10/25 06:51:01;;;;;;;;;3.25;3.00;;;;;22.85;41.02;101628.72;5055538;28;46264;-66
2021/10/25 06:53:28;;;;;;;;;4.00;4.00;;;;;22.84;41.04;101635.88;5055299;28;45440;-66
2021/10/25 06:55:53;;;;;;;;;3.50;3.00;;;;;22.73;40.93;101612.31;5055976;28;45481;-66
2021/10/25 06:58:21;;;;;;;;;6.75;3.50;;;;;22.84;40.47;101641.19;5055662;28;45335;-66
2021/10/25 07:00:46;;;;;;;;;4.50;3.00;;;;;22.85;40.51;101640.16;5056012;28;46230;-66
2021/10/25 07:03:11;;;;;;;;;4.00;3.00;;;;;22.82;40.99;101637.84;5070883;28;45590;-66
2021/10/25 07:05:37;;;;;;;;;5.25;3.25;;;;;22.83;40.95;101639.50;5055531;28;45454;-66
2021/10/25 07:08:05;;;;;;;;;3.00;3.00;;;;;22.84;40.79;101640.34;5055096;28;45494;-66
2021/10/25 07:10:31;;;;;;;;;4.00;4.00;;;;;22.83;40.98;101636.84;5039370;28;45321;-66
2021/10/25 07:12:57;;;;;;;;;3.25;3.25;;;;;22.83;40.41;101636.84;5055801;28;45465;-66
2021/10/25 07:15:23;;;;;;;;;4.00;4.00;;;;;22.83;41.09;101639.50;5055397;28;45219;-66
2021/10/25 08:06:26;;;;;;;;;4.00;4.00;;;;;22.77;40.83;101664.03;5058048;28;45288;-66
2021/10/25 08:09:46;;;;;;;;;4.25;3.00;;;;;22.80;40.78;101671.66;5052802;28;45717;-66
2021/10/25 08:11:56;;;;;;;;;4.00;4.00;;;;;22.77;41.08;101666.69;5036999;28;45284;-66
2021/10/25 08:14:30;;;;;;;;;4.25;4.25;;;;;22.81;41.06;101675.16;5057147;28;46287;-66
2021/10/25 08:16:56;;;;;;;;;3.00;3.00;;;;;22.81;40.82;101672.50;5057827;28;45410;-66
2021/10/25 08:19:26;;;;;;;;;4.75;2.00;;;;;22.77;41.00;101672.00;5056527;28;45333;-66
2021/10/25 08:22:11;;;;;;;;;4.75;3.75;;;;;22.82;40.68;101682.13;5058809;28;45466;-66
2021/10/25 08:24:43;;;;;;;;;2.50;2.25;;;;;22.81;40.60;101678.66;5057597;28;45397;-66
2021/10/25 08:27:09;;;;;;;;;3.75;2.00;;;;;22.82;40.59;101676.84;5057670;28;45304;-66
2021/10/25 08:29:36;;;;;;;;;3.50;3.50;;;;;22.81;41.02;101675.16;5057816;28;45453;-66
2021/10/25 08:39:58;;;;;;;;;3.00;3.00;;;;;22.69;40.46;101653.41;5058513;28;45368;-66
2021/10/25 08:42:25;;;;;;;;;3.00;3.00;;;;;22.74;40.65;101667.03;5057549;28;45391;-66
2021/10/25 08:44:56;;;;;;;;;4.00;3.00;;;;;22.80;40.78;101678.78;5057402;28;47336;-66
2021/10/25 08:47:25;;;;;;;;;3.75;3.75;;;;;22.81;40.93;101672.50;5057482;28;45584;-66
2021/10/25 08:49:51;;;;;;;;;4.00;4.00;;;;;22.76;40.99;101666.88;5057242;28;45588;-66
2021/10/25 08:52:22;;;;;;;;;3.75;3.75;;;;;22.71;41.08;101657.59;5057578;28;45335;-67
2021/10/25 08:54:49;;;;;;;;;3.00;3.00;;;;;22.81;40.55;101677.81;5058226;28;46197;-66
2021/10/25 08:57:16;;;;;;;;;4.00;4.00;;;;;22.81;40.59;101676.00;5057317;28;45298;-66
2021/10/25 08:59:41;;;;;;;;;4.00;3.25;;;;;22.81;40.95;101670.69;5057336;28;45325;-66
2021/10/25 09:02:08;;;;;;;;;5.00;3.25;;;;;22.77;40.77;101669.34;5057158;28;45340;-65
2021/10/25 09:04:34;;;;;;;;;3.00;3.00;;;;;22.78;40.87;101664.88;5057535;28;45959;-66
2021/10/25 09:06:59;;;;;;;;;3.00;3.00;;;;;22.81;41.08;101673.34;5057893;28;45285;-66
2021/10/25 09:09:31;;;;;;;;;2.00;2.00;;;;;22.81;40.47;101676.00;5057097;28;45400;-66
2021/10/25 09:11:59;;;;;;;;;4.00;4.00;;;;;22.80;40.99;101671.66;5057299;28;47098;-66
2021/10/25 09:14:25;;;;;;;;;2.50;2.50;;;;;22.73;40.69;101663.56;5057090;28;47113;-66
2021/10/25 09:17:04;;;;;;;;;3.25;3.25;;;;;22.73;40.92;101660.06;5055365;28;45927;-66
2021/10/25 09:19:35;;;;;;;;;3.50;2.25;;;;;22.77;40.97;101661.38;5041470;28;45234;-66
2021/10/25 09:22:07;;;;;;;;;3.00;3.00;;;;;22.69;41.18;101650.75;5053823;28;45334;-66
2021/10/25 09:24:32;;;;;;;;;5.25;3.00;;;;;22.80;41.04;101666.38;5057195;28;45806;-66
2021/10/25 09:27:01;;;;;;;;;2.00;2.00;;;;;22.80;40.65;101660.22;5056795;28;45226;-66
2021/10/25 09:29:30;;;;;;;;;5.00;3.25;;;;;22.80;40.88;101668.19;5057093;28;45470;-66
2021/10/25 09:31:57;;;;;;;;;2.50;2.50;;;;;22.80;40.39;101661.06;5056752;28;45531;-66
2021/10/25 09:34:46;;;;;;;;;3.00;3.00;;;;;22.81;41.23;101659.25;5056846;28;47239;-66
2021/10/25 09:37:17;;;;;;;;;2.75;2.75;;;;;22.81;40.58;101665.38;5054327;28;45399;-66
2021/10/25 09:39:48;;;;;;;;;1.25;1.00;;;;;22.81;40.66;101654.78;5055478;28;45239;-65
2021/10/25 09:50:18;;;;;;;;;5.00;3.75;;;;;22.82;40.91;101656.41;5056758;28;45479;-66
2021/10/25 09:52:44;;;;;;;;;5.25;3.25;;;;;22.83;40.60;101660.72;5056841;28;45580;-66
2021/10/25 09:55:13;;;;;;;;;4.50;3.75;;;;;22.82;40.62;101660.91;5056690;28;45910;-66
2021/10/25 10:00:12;;;;;;;;;4.50;2.75;;;;;22.82;40.61;101660.91;5056091;28;45411;-66
2021/10/25 10:02:38;;;;;;;;;4.50;4.00;;;;;22.73;41.01;101637.03;5056885;28;45269;-66
2021/10/25 10:05:06;;;;;;;;;3.00;3.00;;;;;22.80;40.93;101655.75;5056165;28;46256;-66
2021/10/25 10:07:34;;;;;;;;;4.75;2.25;;;;;22.71;41.01;101640.84;5040597;28;45350;-66
2021/10/25 10:10:00;;;;;;;;;4.25;2.75;;;;;22.76;41.20;101654.44;5051957;28;45318;-66
2021/10/25 10:12:26;;;;;;;;;3.00;3.00;;;;;22.82;40.59;101664.38;5056348;28;45589;-66
2021/10/25 10:14:57;;;;;;;;;3.25;3.25;;;;;22.82;40.76;101660.91;5055959;28;45429;-66
2021/10/25 10:17:30;;;;;;;;;3.25;3.25;;;;;22.82;40.51;101659.06;5055970;28;45350;-66
2021/10/25 10:19:59;;;;;;;;;3.75;2.50;;;;;22.67;40.89;101640.28;5055383;28;45366;-66
2021/10/25 10:22:27;;;;;;;;;3.00;3.00;;;;;22.70;40.84;101645.31;5056393;28;45300;-66
2021/10/25 10:24:53;;;;;;;;;2.00;2.00;;;;;22.81;40.76;101662.72;5056550;28;47080;-66
2021/10/25 10:27:25;;;;;;;;;3.50;3.50;;;;;22.78;41.35;101654.25;5055850;28;45229;-66
2021/10/25 10:29:58;;;;;;;;;4.00;3.00;;;;;22.71;41.20;101646.16;5055646;28;45384;-66
2021/10/25 10:32:30;;;;;;;;;2.00;2.00;;;;;22.80;40.97;101663.72;5055990;28;45578;-66
2021/10/25 10:35:03;;;;;;;;;2.75;2.75;;;;;22.81;40.73;101662.72;5055824;28;47292;-66
2021/10/25 10:37:32;;;;;;;;;3.00;3.00;;;;;22.81;40.99;101662.72;5055479;28;45501;-66
2021/10/25 10:40:07;;;;;;;;;3.00;3.00;;;;;22.83;40.80;101659.91;5052316;28;45289;-66
2021/10/25 10:42:35;;;;;;;;;3.00;3.00;;;;;22.78;40.83;101651.59;5056095;28;45355;-66
2021/10/25 10:45:04;;;;;;;;;3.00;2.25;;;;;22.81;41.18;101662.72;5054948;28;46359;-66
2021/10/25 10:47:44;;;;;;;;;3.00;3.00;;;;;22.79;40.96;101659.41;5055756;28;45456;-66
2021/10/25 10:50:35;;;;;;;;;2.25;2.25;;;;;22.83;41.17;101660.72;5055812;28;45513;-66
2021/10/25 10:53:10;;;;;;;;;3.50;3.50;;;;;22.78;40.60;101649.78;5055671;28;45386;-66
2021/10/25 10:55:42;;;;;;;;;4.75;2.75;;;;;22.82;40.76;101659.06;5038874;28;45538;-66
2021/10/25 11:00:48;;;;;;;;;3.75;2.00;;;;;22.82;41.22;101663.56;5055502;28;45403;-66
2021/10/25 11:03:20;;;;;;;;;3.00;3.00;;;;;22.82;40.64;101661.72;5055098;28;45611;-66
2021/10/25 11:05:53;;;;;;;;;4.00;3.75;;;;;22.77;41.09;101655.28;5054429;28;46240;-66
2021/10/25 11:08:41;;;;;;;;;3.00;3.00;;;;;22.84;41.31;101664.22;5055056;28;45305;-66
2021/10/25 11:11:16;;;;;;;;;4.00;4.00;;;;;22.83;41.24;101660.72;5055521;28;45737;-66
2021/10/25 11:13:47;;;;;;;;;2.75;2.00;;;;;22.82;41.35;101652.94;5053741;28;45412;-66
2021/10/25 11:19:14;;;;;;;;;2.75;2.75;;;;;22.84;40.93;101651.78;4991216;28;45597;-66
2021/10/25 11:21:46;;;;;;;;;2.00;2.00;;;;;22.84;41.19;101649.13;4980691;28;45472;-66
2021/10/25 11:24:15;;;;;;;;;3.25;3.25;;;;;22.85;41.34;101657.91;4982192;28;45461;-66
2021/10/25 11:26:50;;;;;;;;;4.00;3.75;;;;;22.85;41.26;101656.09;4981795;28;45465;-66
2021/10/25 11:29:26;;;;;;;;;3.00;3.00;;;;;22.85;40.99;101653.44;4981047;28;45590;-66
2021/10/25 11:31:54;;;;;;;;;2.50;2.00;;;;;22.85;41.25;101650.78;4980086;28;45849;-66
2021/10/25 11:34:26;;;;;;;;;1.50;1.50;;;;;22.88;40.86;101646.13;4977347;28;45321;-66
2021/10/25 11:37:21;;;;;;;;;4.25;4.00;;;;;22.87;40.91;101633.88;4978830;28;46332;-66
2021/10/25 11:40:03;;;;;;;;;3.75;3.75;;;;;22.88;40.93;101633.69;4979780;28;45531;-66
2021/10/25 11:42:38;;;;;;;;;3.50;3.50;;;;;22.79;41.19;101621.44;4981461;28;45409;-66
2021/10/25 11:45:13;;;;;;;;;5.50;2.75;;;;;22.89;40.84;101639.84;4981420;28;45563;-66
2021/10/25 11:47:44;;;;;;;;;2.25;2.25;;;;;22.90;41.23;101644.16;4981544;28;47050;-66
2021/10/25 11:50:15;;;;;;;;;2.25;2.25;;;;;22.89;41.26;101638.03;4981409;28;45401;-66
2021/10/25 11:52:44;;;;;;;;;2.50;2.50;;;;;22.79;40.81;101618.78;4978680;28;45647;-66
2021/10/25 11:55:12;;;;;;;;;2.50;2.00;;;;;22.90;40.79;101625.59;5015675;28;45439;-66
2021/10/25 11:57:44;;;;;;;;;4.00;3.50;;;;;22.90;41.23;101622.94;5054802;28;45494;-66
2021/10/25 12:00:11;;;;;;;;;2.00;2.00;;;;;22.90;40.78;101623.75;5054582;28;45386;-66
2021/10/25 12:02:37;;;;;;;;;3.00;3.00;;;;;22.84;41.18;101611.16;5054873;28;45343;-66
2021/10/25 12:05:04;;;;;;;;;3.00;3.00;;;;;22.89;40.76;101621.25;5054288;28;45534;-66
2021/10/25 12:07:30;;;;;;;;;2.25;2.25;;;;;22.91;40.76;101630.72;5054607;28;45330;-66
2021/10/25 12:10:02;;;;;;;;;2.00;2.00;;;;;22.89;40.77;101618.59;5055278;28;45423;-66
2021/10/25 12:12:28;;;;;;;;;4.00;2.50;;;;;22.91;41.02;101628.06;5054247;28;45598;-66
2021/10/25 12:15:03;;;;;;;;;4.25;4.00;;;;;22.92;41.24;101627.06;5053162;28;47000;-66
2021/10/25 12:17:33;;;;;;;;;3.25;3.25;;;;;22.90;40.77;101620.28;5053959;28;45381;-66
2021/10/25 12:20:08;;;;;;;;;3.00;3.00;;;;;22.82;40.72;101616.63;5054499;28;45347;-66
2021/10/25 12:22:34;;;;;;;;;3.75;2.25;;;;;22.92;40.75;101623.59;5039015;28;45482;-66
2021/10/25 12:25:01;;;;;;;;;3.00;3.00;;;;;22.93;40.97;101633.19;5050743;28;45447;-66
2021/10/25 12:27:37;;;;;;;;;2.00;2.00;;;;;22.92;41.41;101624.44;5053774;28;46941;-66
2021/10/25 12:30:09;;;;;;;;;4.50;3.50;;;;;22.92;41.23;101627.06;5053953;28;45499;-65
2021/10/25 12:32:48;;;;;;;;;4.00;4.00;;;;;22.92;40.85;101624.44;5054361;28;45373;-66
2021/10/25 12:35:13;;;;;;;;;2.00;2.00;;;;;22.93;41.26;101626.06;5053459;28;45574;-66
2021/10/25 12:37:39;;;;;;;;;4.50;2.00;;;;;22.93;40.81;101625.22;5054037;28;45447;-66
2021/10/25 12:40:18;;;;;;;;;4.25;3.50;;;;;22.93;41.15;101630.53;5054267;28;47917;-66
2021/10/25 12:42:46;;;;;;;;;4.75;2.75;;;;;22.93;40.98;101627.88;5053606;28;45390;-67
2021/10/25 12:45:20;;;;;;;;;3.75;3.00;;;;;22.93;40.72;101619.91;5057428;28;45382;-66
2021/10/25 12:47:47;;;;;;;;;3.00;3.00;;;;;22.88;41.02;101615.13;5057284;28;46252;-66
2021/10/25 12:50:15;;;;;;;;;3.50;2.00;;;;;22.92;40.70;101619.13;5057435;28;45665;-64
2021/10/25 12:52:42;;;;;;;;;3.00;3.00;;;;;22.93;41.15;101614.63;5057807;28;45292;-66
2021/10/25 12:55:08;;;;;;;;;4.50;2.50;;;;;22.85;40.68;101602.19;5057515;28;45449;-67
2021/10/25 12:57:35;;;;;;;;;2.25;2.25;;;;;22.94;41.04;101618.94;5057671;28;46194;-66
2021/10/25 13:00:14;;;;;;;;;4.00;3.00;;;;;22.92;41.19;101605.00;5057192;28;45460;-66
2021/10/25 13:02:43;;;;;;;;;5.50;2.50;;;;;22.94;40.97;101610.97;5057582;28;45355;-66
2021/10/25 13:05:15;;;;;;;;;4.75;2.25;;;;;22.93;40.69;101601.34;5057544;28;45344;-66
2021/10/25 13:07:44;;;;;;;;;2.00;2.00;;;;;22.92;41.06;101597.06;5057236;28;46226;-66
2021/10/25 13:10:10;;;;;;;;;2.50;2.50;;;;;22.85;41.05;101588.91;5057145;28;45483;-66
2021/10/25 13:12:36;;;;;;;;;3.00;2.00;;;;;22.95;40.70;101600.19;5057735;28;45407;-66
2021/10/25 13:15:02;;;;;;;;;3.00;3.00;;;;;22.90;40.56;101585.78;5057282;28;45323;-64